sensor_id;sensor_type;location;lat;lon;timestamp;P1;durP1;ratioP1;P2;durP2;ratioP2
16354;SDS011;8287;51.644;8.494;2023-10-08T00:01:37;8.57;;;3.92;;
16354;SDS011;8287;51.644;8.494;2023-10-08T00:04:07;6.03;;;3.53;;
16354;SDS011;8287;51.644;8.494;2023-10-08T00:06:37;7.53;;;4.35;;
16354;SDS011;8287;51.644;8.494;2023-10-08T00:09:04;5.50;;;3.95;;
16354;SDS011;8287;51.644;8.494;2023-10-08T00:11:36;7.85;;;3.65;;
16354;SDS011;8287;51.644;8.494;2023-10-08T00:14:03;5.90;;;3.50;;
16354;SDS011;8287;51.644;8.494;2023-10-08T00:16:33;6.30;;;4.30;;
16354;SDS011;8287;51.644;8.494;2023-10-08T00:19:05;6.50;;;3.67;;
16354;SDS011;8287;51.644;8.494;2023-10-08T00:21:37;8.63;;;4.03;;
16354;SDS011;8287;51.644;8.494;2023-10-08T00:24:05;8.10;;;4.00;;
16354;SDS011;8287;51.644;8.494;2023-10-08T00:26:32;10.93;;;4.38;;
16354;SDS011;8287;51.644;8.494;2023-10-08T00:29:05;7.53;;;4.22;;
16354;SDS011;8287;51.644;8.494;2023-10-08T00:31:41;9.32;;;4.35;;
16354;SDS011;8287;51.644;8.494;2023-10-08T00:34:10;7.70;;;4.28;;
16354;SDS011;8287;51.644;8.494;2023-10-08T00:36:40;9.32;;;4.70;;
16354;SDS011;8287;51.644;8.494;2023-10-08T00:39:07;11.65;;;4.32;;
16354;SDS011;8287;51.644;8.494;2023-10-08T00:41:39;6.63;;;3.88;;
16354;SDS011;8287;51.644;8.494;2023-10-08T00:44:07;12.52;;;4.28;;
16354;SDS011;8287;51.644;8.494;2023-10-08T00:46:37;7.43;;;4.20;;
16354;SDS011;8287;51.644;8.494;2023-10-08T00:49:08;9.10;;;3.92;;
16354;SDS011;8287;51.644;8.494;2023-10-08T00:51:51;8.52;;;4.30;;
16354;SDS011;8287;51.644;8.494;2023-10-08T00:54:43;8.68;;;4.93;;
16354;SDS011;8287;51.644;8.494;2023-10-08T00:57:20;10.43;;;4.20;;
16354;SDS011;8287;51.644;8.494;2023-10-08T00:59:49;5.65;;;4.03;;
16354;SDS011;8287;51.644;8.494;2023-10-08T01:02:18;8.85;;;4.25;;
16354;SDS011;8287;51.644;8.494;2023-10-08T01:05:06;8.93;;;4.55;;
16354;SDS011;8287;51.644;8.494;2023-10-08T01:07:36;7.32;;;4.20;;
16354;SDS011;8287;51.644;8.494;2023-10-08T01:10:05;8.32;;;4.53;;
16354;SDS011;8287;51.644;8.494;2023-10-08T01:12:35;8.18;;;3.70;;
16354;SDS011;8287;51.644;8.494;2023-10-08T01:15:09;7.38;;;4.32;;
16354;SDS011;8287;51.644;8.494;2023-10-08T01:17:42;10.20;;;4.30;;
16354;SDS011;8287;51.644;8.494;2023-10-08T01:20:16;10.30;;;4.60;;
16354;SDS011;8287;51.644;8.494;2023-10-08T01:22:59;7.80;;;4.43;;
16354;SDS011;8287;51.644;8.494;2023-10-08T01:25:29;9.52;;;4.13;;
16354;SDS011;8287;51.644;8.494;2023-10-08T01:27:55;10.10;;;4.88;;
16354;SDS011;8287;51.644;8.494;2023-10-08T01:30:25;7.47;;;4.53;;
16354;SDS011;8287;51.644;8.494;2023-10-08T01:33:00;10.63;;;4.22;;
16354;SDS011;8287;51.644;8.494;2023-10-08T01:35:29;10.77;;;4.68;;
16354;SDS011;8287;51.644;8.494;2023-10-08T01:37:57;12.00;;;5.25;;
16354;SDS011;8287;51.644;8.494;2023-10-08T01:40:26;10.40;;;4.13;;
16354;SDS011;8287;51.644;8.494;2023-10-08T01:42:54;10.43;;;4.95;;
16354;SDS011;8287;51.644;8.494;2023-10-08T01:45:22;10.10;;;4.45;;
16354;SDS011;8287;51.644;8.494;2023-10-08T01:47:50;12.52;;;4.45;;
16354;SDS011;8287;51.644;8.494;2023-10-08T01:50:18;7.85;;;4.32;;
16354;SDS011;8287;51.644;8.494;2023-10-08T01:52:47;15.10;;;4.65;;
16354;SDS011;8287;51.644;8.494;2023-10-08T01:55:13;7.75;;;4.80;;
16354;SDS011;8287;51.644;8.494;2023-10-08T01:57:44;10.10;;;4.95;;
16354;SDS011;8287;51.644;8.494;2023-10-08T02:00:11;8.77;;;4.07;;
16354;SDS011;8287;51.644;8.494;2023-10-08T02:02:39;8.27;;;4.90;;
16354;SDS011;8287;51.644;8.494;2023-10-08T02:05:07;14.18;;;5.82;;
16354;SDS011;8287;51.644;8.494;2023-10-08T02:07:34;7.78;;;4.90;;
16354;SDS011;8287;51.644;8.494;2023-10-08T02:10:01;9.80;;;5.07;;
16354;SDS011;8287;51.644;8.494;2023-10-08T02:12:29;7.00;;;4.28;;
16354;SDS011;8287;51.644;8.494;2023-10-08T02:14:57;11.15;;;4.22;;
16354;SDS011;8287;51.644;8.494;2023-10-08T02:17:23;9.63;;;4.55;;
16354;SDS011;8287;51.644;8.494;2023-10-08T02:19:50;7.40;;;4.57;;
16354;SDS011;8287;51.644;8.494;2023-10-08T02:22:16;9.23;;;5.13;;
16354;SDS011;8287;51.644;8.494;2023-10-08T02:24:44;10.73;;;4.95;;
16354;SDS011;8287;51.644;8.494;2023-10-08T02:27:11;10.32;;;4.57;;
16354;SDS011;8287;51.644;8.494;2023-10-08T02:29:40;11.88;;;4.95;;
16354;SDS011;8287;51.644;8.494;2023-10-08T02:32:08;12.75;;;5.80;;
16354;SDS011;8287;51.644;8.494;2023-10-08T02:34:35;8.13;;;4.72;;
16354;SDS011;8287;51.644;8.494;2023-10-08T02:37:01;12.20;;;5.88;;
16354;SDS011;8287;51.644;8.494;2023-10-08T02:39:29;9.73;;;5.38;;
16354;SDS011;8287;51.644;8.494;2023-10-08T02:41:58;7.72;;;4.75;;
16354;SDS011;8287;51.644;8.494;2023-10-08T02:44:25;12.35;;;5.63;;
16354;SDS011;8287;51.644;8.494;2023-10-08T02:46:52;10.05;;;5.43;;
16354;SDS011;8287;51.644;8.494;2023-10-08T02:49:21;10.88;;;5.70;;
16354;SDS011;8287;51.644;8.494;2023-10-08T02:51:51;9.30;;;5.28;;
16354;SDS011;8287;51.644;8.494;2023-10-08T02:54:19;9.35;;;5.25;;
16354;SDS011;8287;51.644;8.494;2023-10-08T02:56:49;15.38;;;5.57;;
16354;SDS011;8287;51.644;8.494;2023-10-08T02:59:17;14.50;;;5.65;;
16354;SDS011;8287;51.644;8.494;2023-10-08T03:01:47;12.18;;;5.40;;
16354;SDS011;8287;51.644;8.494;2023-10-08T03:04:14;16.20;;;6.03;;
16354;SDS011;8287;51.644;8.494;2023-10-08T03:06:45;13.40;;;6.47;;
16354;SDS011;8287;51.644;8.494;2023-10-08T03:09:16;14.23;;;6.10;;
16354;SDS011;8287;51.644;8.494;2023-10-08T03:11:46;14.70;;;6.32;;
16354;SDS011;8287;51.644;8.494;2023-10-08T03:14:13;12.68;;;5.68;;
16354;SDS011;8287;51.644;8.494;2023-10-08T03:16:46;12.13;;;5.82;;
16354;SDS011;8287;51.644;8.494;2023-10-08T03:19:14;18.17;;;6.70;;
16354;SDS011;8287;51.644;8.494;2023-10-08T03:21:45;11.63;;;6.47;;
16354;SDS011;8287;51.644;8.494;2023-10-08T03:24:16;12.10;;;6.22;;
16354;SDS011;8287;51.644;8.494;2023-10-08T03:26:56;11.13;;;5.90;;
16354;SDS011;8287;51.644;8.494;2023-10-08T03:29:32;15.90;;;5.72;;
16354;SDS011;8287;51.644;8.494;2023-10-08T03:32:05;11.57;;;6.50;;
16354;SDS011;8287;51.644;8.494;2023-10-08T03:34:37;8.90;;;5.10;;
16354;SDS011;8287;51.644;8.494;2023-10-08T03:37:09;4.78;;;2.35;;
16354;SDS011;8287;51.644;8.494;2023-10-08T03:39:44;2.63;;;1.10;;
16354;SDS011;8287;51.644;8.494;2023-10-08T03:42:25;1.10;;;1.00;;
16354;SDS011;8287;51.644;8.494;2023-10-08T03:44:59;1.05;;;0.93;;
16354;SDS011;8287;51.644;8.494;2023-10-08T03:47:35;0.93;;;0.90;;
16354;SDS011;8287;51.644;8.494;2023-10-08T03:50:03;0.85;;;0.85;;
16354;SDS011;8287;51.644;8.494;2023-10-08T03:52:36;0.82;;;0.82;;
16354;SDS011;8287;51.644;8.494;2023-10-08T03:55:04;1.45;;;0.60;;
16354;SDS011;8287;51.644;8.494;2023-10-08T03:57:38;1.05;;;0.60;;
16354;SDS011;8287;51.644;8.494;2023-10-08T04:00:09;1.35;;;0.65;;
16354;SDS011;8287;51.644;8.494;2023-10-08T04:02:42;1.10;;;0.80;;
16354;SDS011;8287;51.644;8.494;2023-10-08T04:05:11;2.15;;;0.70;;
16354;SDS011;8287;51.644;8.494;2023-10-08T04:07:46;0.30;;;0.30;;
16354;SDS011;8287;51.644;8.494;2023-10-08T04:10:42;0.40;;;0.40;;
16354;SDS011;8287;51.644;8.494;2023-10-08T04:13:33;0.43;;;0.43;;
16354;SDS011;8287;51.644;8.494;2023-10-08T04:16:04;0.77;;;0.60;;
16354;SDS011;8287;51.644;8.494;2023-10-08T04:18:31;1.85;;;0.40;;
16354;SDS011;8287;51.644;8.494;2023-10-08T04:21:05;0.32;;;0.30;;
16354;SDS011;8287;51.644;8.494;2023-10-08T04:23:39;0.30;;;0.30;;
16354;SDS011;8287;51.644;8.494;2023-10-08T04:26:09;0.10;;;0.10;;
16354;SDS011;8287;51.644;8.494;2023-10-08T04:28:36;0.40;;;0.30;;
16354;SDS011;8287;51.644;8.494;2023-10-08T04:31:03;0.10;;;0.10;;
16354;SDS011;8287;51.644;8.494;2023-10-08T04:33:40;0.57;;;0.30;;
16354;SDS011;8287;51.644;8.494;2023-10-08T04:36:08;0.00;;;0.00;;
16354;SDS011;8287;51.644;8.494;2023-10-08T04:38:34;1.48;;;0.20;;
16354;SDS011;8287;51.644;8.494;2023-10-08T04:41:06;0.10;;;0.10;;
16354;SDS011;8287;51.644;8.494;2023-10-08T04:43:35;0.55;;;0.20;;
16354;SDS011;8287;51.644;8.494;2023-10-08T04:46:04;0.10;;;0.10;;
16354;SDS011;8287;51.644;8.494;2023-10-08T04:48:33;0.10;;;0.10;;
16354;SDS011;8287;51.644;8.494;2023-10-08T04:51:02;0.10;;;0.10;;
16354;SDS011;8287;51.644;8.494;2023-10-08T04:53:29;0.17;;;0.17;;
16354;SDS011;8287;51.644;8.494;2023-10-08T04:56:01;0.03;;;0.03;;
16354;SDS011;8287;51.644;8.494;2023-10-08T04:58:32;0.55;;;0.20;;
16354;SDS011;8287;51.644;8.494;2023-10-08T05:01:02;0.10;;;0.10;;
16354;SDS011;8287;51.644;8.494;2023-10-08T05:03:43;0.00;;;0.00;;
16354;SDS011;8287;51.644;8.494;2023-10-08T05:06:33;0.10;;;0.10;;
16354;SDS011;8287;51.644;8.494;2023-10-08T05:09:15;0.40;;;0.22;;
16354;SDS011;8287;51.644;8.494;2023-10-08T05:11:48;0.13;;;0.13;;
16354;SDS011;8287;51.644;8.494;2023-10-08T05:14:37;0.10;;;0.10;;
16354;SDS011;8287;51.644;8.494;2023-10-08T05:17:20;0.88;;;0.32;;
16354;SDS011;8287;51.644;8.494;2023-10-08T05:19:47;0.13;;;0.10;;
16354;SDS011;8287;51.644;8.494;2023-10-08T05:22:26;0.95;;;0.38;;
16354;SDS011;8287;51.644;8.494;2023-10-08T05:25:07;0.30;;;0.20;;
16354;SDS011;8287;51.644;8.494;2023-10-08T05:27:51;1.55;;;0.20;;
16354;SDS011;8287;51.644;8.494;2023-10-08T05:30:26;0.63;;;0.30;;
16354;SDS011;8287;51.644;8.494;2023-10-08T05:33:07;0.90;;;0.40;;
16354;SDS011;8287;51.644;8.494;2023-10-08T05:35:50;0.10;;;0.10;;
16354;SDS011;8287;51.644;8.494;2023-10-08T05:38:27;0.25;;;0.25;;
16354;SDS011;8287;51.644;8.494;2023-10-08T05:41:12;0.85;;;0.43;;
16354;SDS011;8287;51.644;8.494;2023-10-08T05:44:03;0.70;;;0.50;;
16354;SDS011;8287;51.644;8.494;2023-10-08T05:46:49;0.52;;;0.30;;
16354;SDS011;8287;51.644;8.494;2023-10-08T05:49:49;0.40;;;0.30;;
16354;SDS011;8287;51.644;8.494;2023-10-08T05:52:33;0.68;;;0.38;;
16354;SDS011;8287;51.644;8.494;2023-10-08T05:55:16;2.25;;;0.38;;
16354;SDS011;8287;51.644;8.494;2023-10-08T05:57:50;1.05;;;0.45;;
16354;SDS011;8287;51.644;8.494;2023-10-08T06:00:38;0.20;;;0.10;;
16354;SDS011;8287;51.644;8.494;2023-10-08T06:03:24;0.65;;;0.40;;
16354;SDS011;8287;51.644;8.494;2023-10-08T06:06:11;0.52;;;0.30;;
16354;SDS011;8287;51.644;8.494;2023-10-08T06:09:01;0.40;;;0.20;;
16354;SDS011;8287;51.644;8.494;2023-10-08T06:11:46;0.30;;;0.20;;
16354;SDS011;8287;51.644;8.494;2023-10-08T06:14:33;0.45;;;0.40;;
16354;SDS011;8287;51.644;8.494;2023-10-08T06:17:17;0.95;;;0.35;;
16354;SDS011;8287;51.644;8.494;2023-10-08T06:20:00;1.42;;;0.25;;
16354;SDS011;8287;51.644;8.494;2023-10-08T06:22:34;0.55;;;0.20;;
16354;SDS011;8287;51.644;8.494;2023-10-08T06:25:01;0.80;;;0.17;;
16354;SDS011;8287;51.644;8.494;2023-10-08T06:27:42;0.28;;;0.13;;
16354;SDS011;8287;51.644;8.494;2023-10-08T06:30:10;0.40;;;0.35;;
16354;SDS011;8287;51.644;8.494;2023-10-08T06:32:41;1.05;;;0.30;;
16354;SDS011;8287;51.644;8.494;2023-10-08T06:35:11;0.65;;;0.32;;
16354;SDS011;8287;51.644;8.494;2023-10-08T06:37:42;2.35;;;0.50;;
16354;SDS011;8287;51.644;8.494;2023-10-08T06:40:10;2.30;;;0.30;;
16354;SDS011;8287;51.644;8.494;2023-10-08T06:42:58;0.50;;;0.32;;
16354;SDS011;8287;51.644;8.494;2023-10-08T06:45:28;1.05;;;0.55;;
16354;SDS011;8287;51.644;8.494;2023-10-08T06:47:58;3.33;;;0.85;;
16354;SDS011;8287;51.644;8.494;2023-10-08T06:50:32;1.73;;;0.60;;
16354;SDS011;8287;51.644;8.494;2023-10-08T06:53:01;1.17;;;0.30;;
16354;SDS011;8287;51.644;8.494;2023-10-08T06:55:32;0.55;;;0.40;;
16354;SDS011;8287;51.644;8.494;2023-10-08T06:57:59;1.17;;;0.40;;
16354;SDS011;8287;51.644;8.494;2023-10-08T07:00:27;0.20;;;0.20;;
16354;SDS011;8287;51.644;8.494;2023-10-08T07:03:03;2.13;;;0.50;;
16354;SDS011;8287;51.644;8.494;2023-10-08T07:05:33;0.82;;;0.50;;
16354;SDS011;8287;51.644;8.494;2023-10-08T07:08:06;1.95;;;0.70;;
16354;SDS011;8287;51.644;8.494;2023-10-08T07:10:33;3.67;;;1.30;;
16354;SDS011;8287;51.644;8.494;2023-10-08T07:13:00;2.72;;;0.75;;
16354;SDS011;8287;51.644;8.494;2023-10-08T07:15:28;4.50;;;0.75;;
16354;SDS011;8287;51.644;8.494;2023-10-08T07:17:55;3.40;;;0.95;;
16354;SDS011;8287;51.644;8.494;2023-10-08T07:20:22;4.28;;;0.93;;
16354;SDS011;8287;51.644;8.494;2023-10-08T07:22:51;3.78;;;0.77;;
16354;SDS011;8287;51.644;8.494;2023-10-08T07:25:19;4.03;;;0.98;;
16354;SDS011;8287;51.644;8.494;2023-10-08T07:27:47;0.88;;;0.60;;
16354;SDS011;8287;51.644;8.494;2023-10-08T07:30:14;3.38;;;0.90;;
16354;SDS011;8287;51.644;8.494;2023-10-08T07:32:51;6.30;;;1.00;;
16354;SDS011;8287;51.644;8.494;2023-10-08T07:35:19;2.33;;;0.80;;
16354;SDS011;8287;51.644;8.494;2023-10-08T07:37:55;5.28;;;1.30;;
16354;SDS011;8287;51.644;8.494;2023-10-08T07:40:22;8.68;;;1.00;;
16354;SDS011;8287;51.644;8.494;2023-10-08T07:42:53;2.92;;;1.08;;
16354;SDS011;8287;51.644;8.494;2023-10-08T07:45:20;9.90;;;0.93;;
16354;SDS011;8287;51.644;8.494;2023-10-08T07:47:47;3.60;;;1.10;;
16354;SDS011;8287;51.644;8.494;2023-10-08T07:50:14;2.97;;;1.15;;
16354;SDS011;8287;51.644;8.494;2023-10-08T07:52:41;4.03;;;1.20;;
16354;SDS011;8287;51.644;8.494;2023-10-08T07:55:11;8.63;;;1.58;;
16354;SDS011;8287;51.644;8.494;2023-10-08T07:57:42;3.13;;;1.33;;
16354;SDS011;8287;51.644;8.494;2023-10-08T08:00:10;2.75;;;1.27;;
16354;SDS011;8287;51.644;8.494;2023-10-08T08:02:48;2.92;;;0.90;;
16354;SDS011;8287;51.644;8.494;2023-10-08T08:05:15;3.88;;;1.35;;
16354;SDS011;8287;51.644;8.494;2023-10-08T08:07:44;3.97;;;1.95;;
16354;SDS011;8287;51.644;8.494;2023-10-08T08:10:13;4.25;;;1.38;;
16354;SDS011;8287;51.644;8.494;2023-10-08T08:12:40;3.08;;;1.20;;
16354;SDS011;8287;51.644;8.494;2023-10-08T08:15:07;4.63;;;1.02;;
16354;SDS011;8287;51.644;8.494;2023-10-08T08:17:40;2.53;;;0.90;;
16354;SDS011;8287;51.644;8.494;2023-10-08T08:20:07;2.83;;;0.98;;
16354;SDS011;8287;51.644;8.494;2023-10-08T08:22:43;2.95;;;1.10;;
16354;SDS011;8287;51.644;8.494;2023-10-08T08:25:16;3.00;;;1.10;;
16354;SDS011;8287;51.644;8.494;2023-10-08T08:27:51;1.58;;;0.80;;
16354;SDS011;8287;51.644;8.494;2023-10-08T08:30:18;0.80;;;0.50;;
16354;SDS011;8287;51.644;8.494;2023-10-08T08:32:46;5.68;;;1.65;;
16354;SDS011;8287;51.644;8.494;2023-10-08T08:35:13;8.18;;;2.92;;
16354;SDS011;8287;51.644;8.494;2023-10-08T08:37:41;4.57;;;1.65;;
16354;SDS011;8287;51.644;8.494;2023-10-08T08:40:08;2.78;;;1.25;;
16354;SDS011;8287;51.644;8.494;2023-10-08T08:42:43;4.68;;;1.20;;
16354;SDS011;8287;51.644;8.494;2023-10-08T08:45:11;2.63;;;1.13;;
16354;SDS011;8287;51.644;8.494;2023-10-08T08:47:40;5.75;;;1.15;;
16354;SDS011;8287;51.644;8.494;2023-10-08T08:50:07;4.95;;;1.05;;
16354;SDS011;8287;51.644;8.494;2023-10-08T08:52:34;2.42;;;1.25;;
16354;SDS011;8287;51.644;8.494;2023-10-08T08:55:02;4.82;;;1.15;;
16354;SDS011;8287;51.644;8.494;2023-10-08T08:57:33;2.67;;;0.93;;
16354;SDS011;8287;51.644;8.494;2023-10-08T09:00:01;1.95;;;1.25;;
16354;SDS011;8287;51.644;8.494;2023-10-08T09:02:33;4.55;;;1.00;;
16354;SDS011;8287;51.644;8.494;2023-10-08T09:05:01;8.25;;;1.00;;
16354;SDS011;8287;51.644;8.494;2023-10-08T09:07:50;2.53;;;0.75;;
16354;SDS011;8287;51.644;8.494;2023-10-08T09:10:19;1.38;;;0.77;;
16354;SDS011;8287;51.644;8.494;2023-10-08T09:12:51;2.40;;;1.00;;
16354;SDS011;8287;51.644;8.494;2023-10-08T09:15:19;1.95;;;0.88;;
16354;SDS011;8287;51.644;8.494;2023-10-08T09:17:47;1.10;;;0.63;;
16354;SDS011;8287;51.644;8.494;2023-10-08T09:20:14;3.40;;;1.55;;
16354;SDS011;8287;51.644;8.494;2023-10-08T09:22:42;4.65;;;1.00;;
16354;SDS011;8287;51.644;8.494;2023-10-08T09:25:09;2.50;;;0.85;;
16354;SDS011;8287;51.644;8.494;2023-10-08T09:27:39;6.90;;;0.98;;
16354;SDS011;8287;51.644;8.494;2023-10-08T09:30:12;3.70;;;0.82;;
16354;SDS011;8287;51.644;8.494;2023-10-08T09:32:44;1.10;;;0.90;;
16354;SDS011;8287;51.644;8.494;2023-10-08T09:35:14;2.63;;;0.90;;
16354;SDS011;8287;51.644;8.494;2023-10-08T09:37:41;2.80;;;0.90;;
16354;SDS011;8287;51.644;8.494;2023-10-08T09:40:10;3.05;;;1.38;;
16354;SDS011;8287;51.644;8.494;2023-10-08T09:42:37;6.20;;;0.90;;
16354;SDS011;8287;51.644;8.494;2023-10-08T09:45:04;3.60;;;1.20;;
16354;SDS011;8287;51.644;8.494;2023-10-08T09:47:34;2.75;;;1.65;;
16354;SDS011;8287;51.644;8.494;2023-10-08T09:50:06;2.28;;;0.98;;
16354;SDS011;8287;51.644;8.494;2023-10-08T09:52:38;3.75;;;1.08;;
16354;SDS011;8287;51.644;8.494;2023-10-08T09:55:09;2.15;;;0.75;;
16354;SDS011;8287;51.644;8.494;2023-10-08T09:57:36;2.33;;;1.00;;
16354;SDS011;8287;51.644;8.494;2023-10-08T10:00:04;4.97;;;1.27;;
16354;SDS011;8287;51.644;8.494;2023-10-08T10:02:35;2.05;;;0.85;;
16354;SDS011;8287;51.644;8.494;2023-10-08T10:05:03;5.28;;;0.95;;
16354;SDS011;8287;51.644;8.494;2023-10-08T10:07:32;2.72;;;1.52;;
16354;SDS011;8287;51.644;8.494;2023-10-08T10:09:59;4.10;;;1.10;;
16354;SDS011;8287;51.644;8.494;2023-10-08T10:12:26;2.78;;;1.13;;
16354;SDS011;8287;51.644;8.494;2023-10-08T10:14:53;1.60;;;0.60;;
16354;SDS011;8287;51.644;8.494;2023-10-08T10:17:21;1.67;;;0.60;;
16354;SDS011;8287;51.644;8.494;2023-10-08T10:19:50;3.40;;;0.80;;
16354;SDS011;8287;51.644;8.494;2023-10-08T10:22:29;1.20;;;0.63;;
16354;SDS011;8287;51.644;8.494;2023-10-08T10:24:59;2.97;;;0.80;;
16354;SDS011;8287;51.644;8.494;2023-10-08T10:27:29;3.33;;;0.80;;
16354;SDS011;8287;51.644;8.494;2023-10-08T10:30:00;2.42;;;1.13;;
16354;SDS011;8287;51.644;8.494;2023-10-08T10:32:33;3.85;;;1.00;;
16354;SDS011;8287;51.644;8.494;2023-10-08T10:35:00;2.13;;;0.77;;
16354;SDS011;8287;51.644;8.494;2023-10-08T10:37:30;5.43;;;0.80;;
16354;SDS011;8287;51.644;8.494;2023-10-08T10:40:08;4.72;;;0.98;;
16354;SDS011;8287;51.644;8.494;2023-10-08T10:42:37;7.93;;;1.00;;
16354;SDS011;8287;51.644;8.494;2023-10-08T10:45:12;1.25;;;0.63;;
16354;SDS011;8287;51.644;8.494;2023-10-08T10:48:00;1.13;;;0.55;;
16354;SDS011;8287;51.644;8.494;2023-10-08T10:50:36;7.18;;;1.20;;
16354;SDS011;8287;51.644;8.494;2023-10-08T10:53:13;1.73;;;0.73;;
16354;SDS011;8287;51.644;8.494;2023-10-08T10:55:40;1.80;;;0.90;;
16354;SDS011;8287;51.644;8.494;2023-10-08T10:58:13;6.18;;;1.00;;
16354;SDS011;8287;51.644;8.494;2023-10-08T11:00:41;2.95;;;0.68;;
16354;SDS011;8287;51.644;8.494;2023-10-08T11:03:13;4.43;;;1.20;;
16354;SDS011;8287;51.644;8.494;2023-10-08T11:05:49;3.13;;;1.10;;
16354;SDS011;8287;51.644;8.494;2023-10-08T11:08:20;2.38;;;1.00;;
16354;SDS011;8287;51.644;8.494;2023-10-08T11:10:52;1.45;;;0.70;;
16354;SDS011;8287;51.644;8.494;2023-10-08T11:13:23;4.20;;;1.00;;
16354;SDS011;8287;51.644;8.494;2023-10-08T11:15:53;2.42;;;0.90;;
16354;SDS011;8287;51.644;8.494;2023-10-08T11:18:24;8.68;;;0.77;;
16354;SDS011;8287;51.644;8.494;2023-10-08T11:20:52;6.47;;;1.65;;
16354;SDS011;8287;51.644;8.494;2023-10-08T11:23:40;3.05;;;0.93;;
16354;SDS011;8287;51.644;8.494;2023-10-08T11:26:09;2.42;;;0.80;;
16354;SDS011;8287;51.644;8.494;2023-10-08T11:28:37;1.48;;;0.70;;
16354;SDS011;8287;51.644;8.494;2023-10-08T11:31:07;1.52;;;0.80;;
16354;SDS011;8287;51.644;8.494;2023-10-08T11:33:36;3.80;;;0.80;;
16354;SDS011;8287;51.644;8.494;2023-10-08T11:36:05;9.48;;;1.52;;
16354;SDS011;8287;51.644;8.494;2023-10-08T11:38:43;1.67;;;1.13;;
16354;SDS011;8287;51.644;8.494;2023-10-08T11:41:14;2.42;;;1.33;;
16354;SDS011;8287;51.644;8.494;2023-10-08T11:43:50;2.42;;;1.50;;
16354;SDS011;8287;51.644;8.494;2023-10-08T11:46:22;4.35;;;1.20;;
16354;SDS011;8287;51.644;8.494;2023-10-08T11:48:52;5.13;;;1.63;;
16354;SDS011;8287;51.644;8.494;2023-10-08T11:51:22;5.05;;;1.20;;
16354;SDS011;8287;51.644;8.494;2023-10-08T11:53:49;2.67;;;0.93;;
16354;SDS011;8287;51.644;8.494;2023-10-08T11:56:17;2.92;;;1.27;;
16354;SDS011;8287;51.644;8.494;2023-10-08T11:58:48;1.65;;;1.10;;
16354;SDS011;8287;51.644;8.494;2023-10-08T12:01:16;4.32;;;1.63;;
16354;SDS011;8287;51.644;8.494;2023-10-08T12:03:43;3.17;;;1.35;;
16354;SDS011;8287;51.644;8.494;2023-10-08T12:06:10;3.33;;;2.13;;
16354;SDS011;8287;51.644;8.494;2023-10-08T12:08:41;4.72;;;1.08;;
16354;SDS011;8287;51.644;8.494;2023-10-08T12:11:11;3.65;;;1.02;;
16354;SDS011;8287;51.644;8.494;2023-10-08T12:13:40;2.47;;;1.38;;
16354;SDS011;8287;51.644;8.494;2023-10-08T12:16:13;1.80;;;1.05;;
16354;SDS011;8287;51.644;8.494;2023-10-08T12:18:46;3.78;;;1.33;;
16354;SDS011;8287;51.644;8.494;2023-10-08T12:21:18;1.75;;;0.73;;
16354;SDS011;8287;51.644;8.494;2023-10-08T12:23:45;3.88;;;0.95;;
16354;SDS011;8287;51.644;8.494;2023-10-08T12:26:12;3.47;;;0.90;;
16354;SDS011;8287;51.644;8.494;2023-10-08T12:28:44;2.08;;;0.70;;
16354;SDS011;8287;51.644;8.494;2023-10-08T12:31:13;3.38;;;1.10;;
16354;SDS011;8287;51.644;8.494;2023-10-08T12:33:41;2.42;;;0.80;;
16354;SDS011;8287;51.644;8.494;2023-10-08T12:36:09;4.70;;;1.77;;
16354;SDS011;8287;51.644;8.494;2023-10-08T12:38:37;3.35;;;1.65;;
16354;SDS011;8287;51.644;8.494;2023-10-08T12:41:06;2.47;;;1.00;;
16354;SDS011;8287;51.644;8.494;2023-10-08T12:43:37;3.08;;;0.70;;
16354;SDS011;8287;51.644;8.494;2023-10-08T12:46:08;1.88;;;0.90;;
16354;SDS011;8287;51.644;8.494;2023-10-08T12:48:43;2.20;;;0.85;;
16354;SDS011;8287;51.644;8.494;2023-10-08T12:51:13;1.15;;;0.63;;
16354;SDS011;8287;51.644;8.494;2023-10-08T12:53:42;5.45;;;1.00;;
16354;SDS011;8287;51.644;8.494;2023-10-08T12:56:16;3.58;;;1.27;;
16354;SDS011;8287;51.644;8.494;2023-10-08T12:58:46;3.80;;;0.70;;
16354;SDS011;8287;51.644;8.494;2023-10-08T13:01:15;2.58;;;0.98;;
16354;SDS011;8287;51.644;8.494;2023-10-08T13:03:43;3.13;;;2.20;;
16354;SDS011;8287;51.644;8.494;2023-10-08T13:06:13;1.95;;;0.95;;
16354;SDS011;8287;51.644;8.494;2023-10-08T13:08:47;1.90;;;1.10;;
16354;SDS011;8287;51.644;8.494;2023-10-08T13:11:14;2.60;;;1.00;;
16354;SDS011;8287;51.644;8.494;2023-10-08T13:13:40;2.78;;;1.52;;
16354;SDS011;8287;51.644;8.494;2023-10-08T13:16:07;3.25;;;0.90;;
16354;SDS011;8287;51.644;8.494;2023-10-08T13:18:35;2.97;;;1.00;;
16354;SDS011;8287;51.644;8.494;2023-10-08T13:21:02;4.05;;;1.17;;
16354;SDS011;8287;51.644;8.494;2023-10-08T13:23:30;4.50;;;0.98;;
16354;SDS011;8287;51.644;8.494;2023-10-08T13:26:00;3.95;;;1.08;;
16354;SDS011;8287;51.644;8.494;2023-10-08T13:28:29;3.47;;;0.93;;
16354;SDS011;8287;51.644;8.494;2023-10-08T13:30:58;2.50;;;0.85;;
16354;SDS011;8287;51.644;8.494;2023-10-08T13:33:25;5.72;;;1.02;;
16354;SDS011;8287;51.644;8.494;2023-10-08T13:35:55;1.77;;;0.70;;
16354;SDS011;8287;51.644;8.494;2023-10-08T13:38:21;5.38;;;1.08;;
16354;SDS011;8287;51.644;8.494;2023-10-08T13:40:48;4.43;;;1.02;;
16354;SDS011;8287;51.644;8.494;2023-10-08T13:43:28;3.83;;;1.20;;
16354;SDS011;8287;51.644;8.494;2023-10-08T13:46:02;3.15;;;1.00;;
16354;SDS011;8287;51.644;8.494;2023-10-08T13:48:31;0.80;;;0.80;;
16354;SDS011;8287;51.644;8.494;2023-10-08T13:51:01;4.63;;;1.30;;
16354;SDS011;8287;51.644;8.494;2023-10-08T13:53:29;1.30;;;0.50;;
16354;SDS011;8287;51.644;8.494;2023-10-08T13:56:01;0.98;;;0.70;;
16354;SDS011;8287;51.644;8.494;2023-10-08T13:58:30;3.47;;;0.80;;
16354;SDS011;8287;51.644;8.494;2023-10-08T14:00:59;1.95;;;0.93;;
16354;SDS011;8287;51.644;8.494;2023-10-08T14:03:26;1.83;;;0.88;;
16354;SDS011;8287;51.644;8.494;2023-10-08T14:05:56;1.77;;;0.98;;
16354;SDS011;8287;51.644;8.494;2023-10-08T14:08:28;6.55;;;1.00;;
16354;SDS011;8287;51.644;8.494;2023-10-08T14:10:55;1.77;;;1.15;;
16354;SDS011;8287;51.644;8.494;2023-10-08T14:13:28;1.27;;;0.60;;
16354;SDS011;8287;51.644;8.494;2023-10-08T14:15:56;1.83;;;0.60;;
16354;SDS011;8287;51.644;8.494;2023-10-08T14:18:23;3.35;;;1.23;;
16354;SDS011;8287;51.644;8.494;2023-10-08T14:20:53;2.70;;;0.90;;
16354;SDS011;8287;51.644;8.494;2023-10-08T14:23:20;3.58;;;1.08;;
16354;SDS011;8287;51.644;8.494;2023-10-08T14:25:51;1.42;;;1.00;;
16354;SDS011;8287;51.644;8.494;2023-10-08T14:28:28;0.80;;;0.70;;
16354;SDS011;8287;51.644;8.494;2023-10-08T14:31:05;1.77;;;0.70;;
16354;SDS011;8287;51.644;8.494;2023-10-08T14:33:32;4.90;;;1.45;;
16354;SDS011;8287;51.644;8.494;2023-10-08T14:36:06;1.90;;;0.93;;
16354;SDS011;8287;51.644;8.494;2023-10-08T14:38:47;1.80;;;0.95;;
16354;SDS011;8287;51.644;8.494;2023-10-08T14:41:32;2.55;;;0.93;;
16354;SDS011;8287;51.644;8.494;2023-10-08T14:44:16;2.30;;;0.80;;
16354;SDS011;8287;51.644;8.494;2023-10-08T14:46:43;2.42;;;0.50;;
16354;SDS011;8287;51.644;8.494;2023-10-08T14:49:09;1.95;;;0.85;;
16354;SDS011;8287;51.644;8.494;2023-10-08T14:51:37;1.33;;;0.55;;
16354;SDS011;8287;51.644;8.494;2023-10-08T14:54:05;0.73;;;0.70;;
16354;SDS011;8287;51.644;8.494;2023-10-08T14:56:34;0.85;;;0.57;;
16354;SDS011;8287;51.644;8.494;2023-10-08T14:59:01;2.78;;;0.80;;
16354;SDS011;8287;51.644;8.494;2023-10-08T15:01:28;2.17;;;0.90;;
16354;SDS011;8287;51.644;8.494;2023-10-08T15:03:58;1.25;;;0.65;;
16354;SDS011;8287;51.644;8.494;2023-10-08T15:06:28;1.05;;;0.68;;
16354;SDS011;8287;51.644;8.494;2023-10-08T15:08:56;2.25;;;0.70;;
16354;SDS011;8287;51.644;8.494;2023-10-08T15:11:23;3.20;;;0.85;;
16354;SDS011;8287;51.644;8.494;2023-10-08T15:13:51;1.67;;;0.68;;
16354;SDS011;8287;51.644;8.494;2023-10-08T15:16:19;4.82;;;1.13;;
16354;SDS011;8287;51.644;8.494;2023-10-08T15:18:47;0.82;;;0.77;;
16354;SDS011;8287;51.644;8.494;2023-10-08T15:21:14;0.70;;;0.60;;
16354;SDS011;8287;51.644;8.494;2023-10-08T15:23:42;0.77;;;0.50;;
16354;SDS011;8287;51.644;8.494;2023-10-08T15:26:09;1.45;;;0.82;;